createdAt,value
2019-01-19T00:01:38.331Z,-1.00
2019-01-19T00:04:40.727Z,-0.93
2019-01-19T00:07:47.664Z,-0.81
2019-01-19T00:10:45.845Z,-0.67
2019-01-19T00:13:24.659Z,-0.71
2019-01-19T00:16:02.837Z,-0.73
2019-01-19T00:19:12.322Z,-0.79
2019-01-19T00:22:06.117Z,-0.81
2019-01-19T00:24:43.055Z,-0.86
2019-01-19T00:27:34.314Z,-0.88
2019-01-19T00:30:51.634Z,-0.92
2019-01-19T00:33:57.411Z,-0.92
2019-01-19T00:36:57.116Z,-0.93
2019-01-19T00:39:58.319Z,-0.96
2019-01-19T00:42:44.498Z,-1.00
2019-01-19T00:45:54.538Z,-1.03
2019-01-19T00:49:01.452Z,-1.06
2019-01-19T00:52:30.775Z,-1.12
2019-01-19T00:55:09.757Z,-1.16
2019-01-19T00:58:16.428Z,-1.19
2019-01-19T01:01:23.383Z,-1.23
2019-01-19T01:04:23.618Z,-1.27
2019-01-19T01:07:17.231Z,-1.30
2019-01-19T01:10:15.803Z,-1.32
2019-01-19T01:13:19.273Z,-1.32
2019-01-19T01:16:48.298Z,-1.36
2019-01-19T01:19:36.367Z,-1.36
2019-01-19T01:22:49.262Z,-1.41
2019-01-19T01:25:43.228Z,-1.38
2019-01-19T01:28:41.716Z,-1.40
2019-01-19T01:31:35.571Z,-1.40
2019-01-19T01:34:22.348Z,-1.41
2019-01-19T01:37:20.306Z,-1.40
2019-01-19T01:40:15.959Z,-1.40
2019-01-19T01:43:19.188Z,-1.41
2019-01-19T01:46:30.113Z,-1.44
2019-01-19T01:49:34.481Z,-1.45
2019-01-19T01:53:02.599Z,-1.48
2019-01-19T01:55:38.473Z,-1.50
2019-01-19T01:58:44.708Z,-1.46
2019-01-19T02:01:53.324Z,-1.49
2019-01-19T02:04:49.493Z,-1.47
2019-01-19T02:07:57.047Z,-1.47
2019-01-19T02:11:07.636Z,-1.48
2019-01-19T02:14:01.902Z,-1.48
2019-01-19T02:17:07.625Z,-1.49
2019-01-19T02:20:16.862Z,-1.49
2019-01-19T02:23:22.879Z,-1.49
2019-01-19T02:26:34.485Z,-1.52
2019-01-19T02:29:40.922Z,-1.54
2019-01-19T02:33:03.845Z,-1.54
2019-01-19T02:36:00.641Z,-1.56
2019-01-19T02:39:17.959Z,-1.57
2019-01-19T02:42:19.664Z,-1.57
2019-01-19T02:45:17.993Z,-1.57
2019-01-19T02:48:00.779Z,-1.62
2019-01-19T02:50:58.338Z,-1.62
2019-01-19T02:54:10.579Z,-1.62
2019-01-19T02:57:05.505Z,-1.63
2019-01-19T03:00:07.875Z,-1.63
2019-01-19T03:03:28.898Z,-1.64
2019-01-19T03:06:30.082Z,-1.67
2019-01-19T03:09:42.587Z,-1.71
2019-01-19T03:12:48.850Z,-1.71
2019-01-19T03:16:02.900Z,-1.74
2019-01-19T03:19:09.425Z,-1.76
2019-01-19T03:22:12.997Z,-1.78
2019-01-19T03:25:20.681Z,-1.80
2019-01-19T03:28:07.981Z,-1.81
2019-01-19T03:31:18.769Z,-1.85
2019-01-19T03:33:59.380Z,-1.86
2019-01-19T03:37:37.561Z,-1.87
2019-01-19T03:40:45.463Z,-1.89
2019-01-19T03:43:48.113Z,-1.89
2019-01-19T03:47:00.909Z,-1.90
2019-01-19T03:49:44.277Z,-1.91
2019-01-19T03:52:45.153Z,-1.89
2019-01-19T03:55:51.332Z,-1.89
2019-01-19T03:58:49.163Z,-1.92
2019-01-19T04:01:44.122Z,-1.94
2019-01-19T04:04:43.516Z,-1.95
2019-01-19T04:07:54.034Z,-1.98
2019-01-19T04:11:09.689Z,-2.02
2019-01-19T04:14:03.398Z,-2.03
2019-01-19T04:17:19.520Z,-2.05
2019-01-19T04:20:13.275Z,-2.08
2019-01-19T04:22:49.241Z,-2.09
2019-01-19T04:25:41.900Z,-2.07
2019-01-19T04:28:11.393Z,-2.11
2019-01-19T04:30:40.653Z,-2.10
2019-01-19T04:33:09.985Z,-2.11
2019-01-19T04:35:39.259Z,-2.14
2019-01-19T04:38:08.526Z,-2.14
2019-01-19T04:40:37.810Z,-2.13
2019-01-19T04:43:07.117Z,-2.14
2019-01-19T04:45:36.335Z,-2.14
2019-01-19T04:48:05.641Z,-2.15
2019-01-19T04:50:34.895Z,-2.15
2019-01-19T04:53:04.129Z,-2.14
2019-01-19T04:55:33.394Z,-2.16
2019-01-19T04:58:02.670Z,-2.16
2019-01-19T05:00:31.906Z,-2.15
2019-01-19T05:03:01.241Z,-2.15
2019-01-19T05:05:30.541Z,-2.14
2019-01-19T05:07:59.823Z,-2.15
2019-01-19T05:10:29.061Z,-2.15
2019-01-19T05:12:58.324Z,-2.17
2019-01-19T05:15:27.551Z,-2.20
2019-01-19T05:17:56.813Z,-2.20
2019-01-19T05:20:26.050Z,-2.21
2019-01-19T05:22:55.283Z,-2.19
2019-01-19T05:25:24.526Z,-2.20
2019-01-19T05:27:53.817Z,-2.20
2019-01-19T05:30:23.057Z,-2.22
2019-01-19T05:32:52.396Z,-2.24
2019-01-19T05:35:21.671Z,-2.24
2019-01-19T05:37:50.949Z,-2.24
2019-01-19T05:40:20.193Z,-2.24
2019-01-19T05:42:49.486Z,-2.27
2019-01-19T05:45:18.760Z,-2.28
2019-01-19T05:47:48.037Z,-2.30
2019-01-19T05:50:19.542Z,-2.32
2019-01-19T05:52:48.871Z,-2.34
2019-01-19T05:55:18.142Z,-2.36
2019-01-19T05:57:47.410Z,-2.38
2019-01-19T06:00:19.063Z,-2.39
2019-01-19T06:02:48.383Z,-2.41
2019-01-19T06:05:17.931Z,-2.41
2019-01-19T06:07:47.324Z,-2.40
2019-01-19T06:10:16.668Z,-2.39
2019-01-19T06:12:45.925Z,-2.41
2019-01-19T06:15:15.303Z,-2.40
2019-01-19T06:17:44.557Z,-2.41
2019-01-19T06:20:15.156Z,-2.42
2019-01-19T06:22:44.419Z,-2.46
2019-01-19T06:25:14.534Z,-2.49
2019-01-19T06:27:43.759Z,-2.53
2019-01-19T06:30:16.086Z,-2.57
2019-01-19T06:32:45.382Z,-2.60
2019-01-19T06:35:14.747Z,-2.61
2019-01-19T06:37:44.136Z,-2.63
2019-01-19T06:40:16.186Z,-2.66
2019-01-19T06:42:45.453Z,-2.70
2019-01-19T06:45:23.163Z,-2.72
2019-01-19T06:47:52.401Z,-2.72
2019-01-19T06:50:21.673Z,-2.72
2019-01-19T06:52:51.011Z,-2.73
2019-01-19T06:55:25.917Z,-2.74
2019-01-19T06:57:55.191Z,-2.74
2019-01-19T07:00:24.415Z,-2.74
2019-01-19T07:02:53.665Z,-2.73
2019-01-19T07:05:22.890Z,-2.72
2019-01-19T07:07:52.186Z,-2.70
2019-01-19T07:10:22.679Z,-2.70
2019-01-19T07:12:51.939Z,-2.69
2019-01-19T07:15:21.212Z,-2.66
2019-01-19T07:17:50.488Z,-2.63
2019-01-19T07:20:22.204Z,-2.62
2019-01-19T07:22:51.469Z,-2.60
2019-01-19T07:25:20.727Z,-2.59
2019-01-19T07:27:50.010Z,-2.57
2019-01-19T07:30:19.277Z,-2.55
2019-01-19T07:32:48.582Z,-2.52
2019-01-19T07:35:18.033Z,-2.49
2019-01-19T07:37:47.303Z,-2.47
2019-01-19T07:40:17.223Z,-2.44
2019-01-19T07:42:46.551Z,-2.42
2019-01-19T07:45:16.063Z,-2.38
2019-01-19T07:47:45.846Z,-2.35
2019-01-19T07:50:16.600Z,-2.31
2019-01-19T07:52:46.727Z,-2.28
2019-01-19T07:55:17.581Z,-2.22
2019-01-19T07:57:46.813Z,-2.17
2019-01-19T08:00:18.519Z,-2.10
2019-01-19T08:02:47.765Z,-2.04
2019-01-19T08:05:17.125Z,-1.98
2019-01-19T08:07:46.409Z,-1.93
2019-01-19T08:10:16.553Z,-1.91
2019-01-19T08:12:45.931Z,-1.88
2019-01-19T08:15:17.098Z,-1.81
2019-01-19T08:17:46.409Z,-1.74
2019-01-19T08:20:15.680Z,-1.66
2019-01-19T08:22:44.951Z,-1.55
2019-01-19T08:25:14.246Z,-1.44
2019-01-19T08:27:43.523Z,-1.30
2019-01-19T08:30:21.321Z,-1.17
2019-01-19T08:32:50.642Z,-1.09
2019-01-19T08:35:19.927Z,-1.00
2019-01-19T08:37:49.249Z,-0.87
2019-01-19T08:40:20.883Z,-0.75
2019-01-19T08:43:09.740Z,-0.63
2019-01-19T08:45:39.147Z,-0.53
2019-01-19T08:48:08.402Z,-0.44
2019-01-19T08:50:37.706Z,-0.38
2019-01-19T08:53:07.031Z,-0.36
2019-01-19T08:55:36.312Z,-0.37
2019-01-19T08:58:05.691Z,-0.32
2019-01-19T09:00:34.999Z,-0.27
2019-01-19T09:03:04.443Z,-0.11
2019-01-19T09:05:33.709Z,0.01
2019-01-19T09:08:03.018Z,0.24
2019-01-19T09:10:32.345Z,0.44
2019-01-19T09:13:01.760Z,0.61
2019-01-19T09:15:31.244Z,0.73
2019-01-19T09:18:00.746Z,0.83
2019-01-19T09:20:30.015Z,0.20
2019-01-19T09:23:06.560Z,0.91
2019-01-19T09:25:35.865Z,0.98
2019-01-19T09:28:05.198Z,1.00
2019-01-19T09:30:34.479Z,1.00
2019-01-19T09:33:03.954Z,0.96
2019-01-19T09:35:33.871Z,0.85
2019-01-19T09:38:03.195Z,0.69
2019-01-19T09:40:32.493Z,0.58
2019-01-19T09:43:01.730Z,0.58
2019-01-19T09:45:32.587Z,0.53
2019-01-19T09:48:00.328Z,0.54
2019-01-19T09:50:29.661Z,1.37
2019-01-19T09:52:58.987Z,1.98
2019-01-19T09:55:28.267Z,2.12
2019-01-19T09:57:57.583Z,1.68
2019-01-19T10:00:26.968Z,1.46
2019-01-19T10:02:56.276Z,1.27
2019-01-19T10:05:25.670Z,1.14
2019-01-19T10:07:54.988Z,1.08
2019-01-19T10:10:24.301Z,1.01
2019-01-19T10:12:53.685Z,0.91
2019-01-19T10:15:22.985Z,0.81
2019-01-19T10:17:52.243Z,0.75
2019-01-19T10:20:23.338Z,0.70
2019-01-19T10:22:52.707Z,0.73
2019-01-19T10:25:22.023Z,0.80
2019-01-19T10:27:51.298Z,0.90
2019-01-19T10:30:22.789Z,1.05
2019-01-19T10:32:52.106Z,1.21
2019-01-19T10:35:21.460Z,1.34
2019-01-19T10:37:56.344Z,1.48
2019-01-19T10:40:20.181Z,1.62
2019-01-19T10:42:49.485Z,1.76
2019-01-19T10:45:21.334Z,1.89
2019-01-19T10:47:50.631Z,1.99
2019-01-19T10:50:19.997Z,2.05
2019-01-19T10:52:49.379Z,2.15
2019-01-19T10:55:19.729Z,2.21
2019-01-19T10:57:49.039Z,2.33
2019-01-19T11:00:26.846Z,2.44
2019-01-19T11:02:56.793Z,2.54
2019-01-19T11:05:26.073Z,2.65
2019-01-19T11:07:55.421Z,3.08
2019-01-19T11:10:26.839Z,3.42
2019-01-19T11:12:56.138Z,3.54
2019-01-19T11:15:25.465Z,3.61
2019-01-19T11:17:54.765Z,3.65
2019-01-19T11:20:26.002Z,3.63
2019-01-19T11:22:55.758Z,3.63
2019-01-19T11:25:25.066Z,3.68
2019-01-19T11:27:54.609Z,3.72
2019-01-19T11:30:25.739Z,3.83
2019-01-19T11:32:55.053Z,3.93
2019-01-19T11:35:24.419Z,4.29
2019-01-19T11:37:53.704Z,4.85
2019-01-19T11:40:37.469Z,5.52
2019-01-19T11:43:08.696Z,6.25
2019-01-19T11:45:38.297Z,7.00
2019-01-19T11:48:07.560Z,7.57
2019-01-19T11:50:36.877Z,8.07
2019-01-19T11:53:06.149Z,8.58
2019-01-19T11:55:35.665Z,9.04
2019-01-19T11:58:06.286Z,9.38
2019-01-19T12:00:37.597Z,9.39
2019-01-19T12:03:07.130Z,9.53
2019-01-19T12:05:36.436Z,9.65
2019-01-19T12:08:05.725Z,9.66
2019-01-19T12:10:35.019Z,9.83
2019-01-19T12:13:04.362Z,9.86
2019-01-19T12:15:33.649Z,10.24
2019-01-19T12:18:02.981Z,10.59
2019-01-19T12:20:37.477Z,10.79
2019-01-19T12:23:07.617Z,10.91
2019-01-19T12:25:36.893Z,10.51
2019-01-19T12:28:06.411Z,9.98
2019-01-19T12:30:35.741Z,9.75
2019-01-19T12:33:05.361Z,9.49
2019-01-19T12:35:34.658Z,9.61
2019-01-19T12:38:03.996Z,9.78
2019-01-19T12:40:33.286Z,9.65
2019-01-19T12:43:08.596Z,9.44
2019-01-19T12:45:46.430Z,9.20
2019-01-19T12:48:15.727Z,8.77
2019-01-19T12:50:45.149Z,8.38
2019-01-19T12:53:15.898Z,7.97
2019-01-19T12:55:43.785Z,7.74
2019-01-19T12:58:13.127Z,7.46
2019-01-19T13:00:42.402Z,7.42
2019-01-19T13:03:11.801Z,7.31
2019-01-19T13:06:34.747Z,7.36
2019-01-19T13:09:12.972Z,7.53
2019-01-19T13:12:07.012Z,7.87
2019-01-19T13:14:41.274Z,8.52
2019-01-19T13:17:37.506Z,8.48
2019-01-19T13:20:29.953Z,8.21
2019-01-19T13:23:29.597Z,7.92
2019-01-19T13:26:33.451Z,7.51
2019-01-19T13:29:24.180Z,7.22
2019-01-19T13:32:47.026Z,6.91
2019-01-19T13:35:52.809Z,6.74
2019-01-19T13:39:08.956Z,6.44
2019-01-19T13:42:09.140Z,5.97
2019-01-19T13:44:59.503Z,5.97
2019-01-19T13:47:42.890Z,5.75
2019-01-19T13:50:20.847Z,5.54
2019-01-19T13:53:28.258Z,5.30
2019-01-19T13:56:20.625Z,5.14
2019-01-19T13:59:30.186Z,4.91
2019-01-19T14:02:41.211Z,4.68
2019-01-19T14:05:41.243Z,4.53
2019-01-19T14:08:49.094Z,4.36
2019-01-19T14:11:50.808Z,4.30
2019-01-19T14:14:59.355Z,4.17
2019-01-19T14:18:17.550Z,4.09
2019-01-19T14:21:20.697Z,4.06
2019-01-19T14:24:07.740Z,4.09
2019-01-19T14:27:09.277Z,4.11
2019-01-19T14:30:12.025Z,4.06
2019-01-19T14:33:03.701Z,3.96
2019-01-19T14:35:59.574Z,3.89
2019-01-19T14:38:56.558Z,3.85
2019-01-19T14:41:41.956Z,3.84
2019-01-19T14:44:27.811Z,3.84
2019-01-19T14:47:17.271Z,3.81
2019-01-19T14:50:46.676Z,3.77
2019-01-19T14:53:43.829Z,3.73
2019-01-19T14:57:03.764Z,3.57
2019-01-19T15:00:18.079Z,3.42
2019-01-19T15:03:17.250Z,3.19
2019-01-19T15:06:19.321Z,2.93
2019-01-19T15:09:11.827Z,2.71
2019-01-19T15:12:17.920Z,2.48
2019-01-19T15:15:04.783Z,2.28
2019-01-19T15:17:59.876Z,2.09
2019-01-19T15:20:40.414Z,1.93
2019-01-19T15:23:28.576Z,1.77
2019-01-19T15:26:51.644Z,1.63
2019-01-19T15:29:35.745Z,1.49
2019-01-19T15:32:49.521Z,1.32
2019-01-19T15:35:48.714Z,1.18
2019-01-19T15:39:10.754Z,1.04
2019-01-19T15:42:09.862Z,0.89
2019-01-19T15:44:55.204Z,0.74
2019-01-19T15:47:57.944Z,0.60
2019-01-19T15:51:10.934Z,0.48
2019-01-19T15:53:50.788Z,0.34
2019-01-19T15:56:59.488Z,0.23
2019-01-19T15:59:53.894Z,0.14
2019-01-19T16:03:11.375Z,0.02
2019-01-19T16:06:12.274Z,-0.06
2019-01-19T16:09:23.436Z,-0.16
2019-01-19T16:12:01.425Z,-0.24
2019-01-19T16:14:51.374Z,-0.32
2019-01-19T16:17:50.929Z,-0.39
2019-01-19T16:21:16.729Z,-0.45
2019-01-19T16:24:26.461Z,-0.51
2019-01-19T16:27:36.264Z,-0.58
2019-01-19T16:30:56.122Z,-0.61
2019-01-19T16:34:07.550Z,-0.67
2019-01-19T16:37:07.873Z,-0.70
2019-01-19T16:40:25.890Z,-0.71
2019-01-19T16:43:38.565Z,-0.72
2019-01-19T16:46:49.621Z,-0.75
2019-01-19T16:50:09.813Z,-0.87
2019-01-19T16:53:12.384Z,-0.94
2019-01-19T16:56:13.409Z,-0.99
2019-01-19T16:58:57.682Z,-1.03
2019-01-19T17:01:56.064Z,-1.06
2019-01-19T17:04:55.404Z,-1.08
2019-01-19T17:08:30.805Z,-1.10
2019-01-19T17:11:35.172Z,-1.11
2019-01-19T17:14:39.779Z,-1.15
2019-01-19T17:18:03.296Z,-1.16
2019-01-19T17:21:28.299Z,-1.13
2019-01-19T17:24:57.575Z,-1.13
2019-01-19T17:27:40.471Z,-1.03
2019-01-19T17:30:59.965Z,-1.01
2019-01-19T17:34:04.683Z,-1.02
2019-01-19T17:37:04.535Z,-1.01
2019-01-19T17:40:05.576Z,-1.01
2019-01-19T17:43:18.344Z,-1.02
2019-01-19T17:45:58.449Z,-1.05
2019-01-19T17:48:40.704Z,-1.09
2019-01-19T17:51:40.663Z,-1.13
2019-01-19T17:54:56.730Z,-1.15
2019-01-19T17:58:05.791Z,-1.19
2019-01-19T18:01:21.973Z,-1.23
2019-01-19T18:04:27.486Z,-1.24
2019-01-19T18:07:26.832Z,-1.25
2019-01-19T18:10:40.982Z,-1.26
2019-01-19T18:13:20.998Z,-1.28
2019-01-19T18:16:15.727Z,-1.27
2019-01-19T18:19:09.331Z,-1.29
2019-01-19T18:22:20.071Z,-1.31
2019-01-19T18:25:01.323Z,-1.31
2019-01-19T18:28:03.399Z,-1.34
2019-01-19T18:31:26.605Z,-1.36
2019-01-19T18:34:30.340Z,-1.39
2019-01-19T18:37:31.740Z,-1.42
2019-01-19T18:40:42.615Z,-1.45
2019-01-19T18:43:47.545Z,-1.49
2019-01-19T18:46:35.144Z,-1.53
2019-01-19T18:50:04.427Z,-1.59
2019-01-19T18:52:57.027Z,-1.62
2019-01-19T18:55:52.803Z,-1.68
2019-01-19T18:58:58.727Z,-1.72
2019-01-19T19:01:55.095Z,-1.50
2019-01-19T19:04:45.895Z,-1.52
2019-01-19T19:07:43.635Z,-1.58
2019-01-19T19:11:05.338Z,-1.67
2019-01-19T19:14:07.257Z,-1.68
2019-01-19T19:17:10.171Z,-1.66
2019-01-19T19:19:51.641Z,-1.73
2019-01-19T19:23:01.950Z,-1.33
2019-01-19T19:25:58.501Z,-1.59
2019-01-19T19:29:27.498Z,-1.74
2019-01-19T19:32:37.376Z,-1.87
2019-01-19T19:35:32.845Z,-1.96
2019-01-19T19:39:02.201Z,-2.00
2019-01-19T19:42:31.830Z,-2.04
2019-01-19T19:45:35.525Z,-1.44
2019-01-19T19:48:47.853Z,-0.84
2019-01-19T19:52:02.071Z,-0.88
2019-01-19T19:54:32.111Z,-1.04
2019-01-19T19:57:01.510Z,-1.27
2019-01-19T19:59:30.930Z,-1.42
2019-01-19T20:02:03.239Z,-1.55
2019-01-19T20:04:32.587Z,-1.66
2019-01-19T20:07:02.027Z,-1.75
2019-01-19T20:09:31.635Z,-1.81
2019-01-19T20:12:10.142Z,-1.85
2019-01-19T20:14:39.558Z,-1.85
2019-01-19T20:17:08.952Z,-1.83
2019-01-19T20:19:38.254Z,-1.85
2019-01-19T20:22:07.719Z,-1.88
2019-01-19T20:24:37.017Z,-1.88
2019-01-19T20:27:09.099Z,-1.92
2019-01-19T20:29:41.258Z,-1.93
2019-01-19T20:32:13.336Z,-1.94
2019-01-19T20:34:42.756Z,-1.88
2019-01-19T20:37:12.161Z,-1.81
2019-01-19T20:39:41.444Z,-1.75
2019-01-19T20:42:11.042Z,-1.70
2019-01-19T20:44:40.546Z,-1.67
2019-01-19T20:47:09.977Z,-1.65
2019-01-19T20:49:39.343Z,-1.62
2019-01-19T20:52:08.684Z,-1.64
2019-01-19T20:54:38.018Z,-1.66
2019-01-19T20:57:07.356Z,-1.68
2019-01-19T20:59:36.767Z,-1.69
2019-01-19T21:02:06.057Z,-1.72
2019-01-19T21:04:35.407Z,-1.73
2019-01-19T21:07:04.765Z,-1.71
2019-01-19T21:09:34.265Z,-1.71
2019-01-19T21:12:03.692Z,-1.70
2019-01-19T21:14:32.993Z,-1.72
2019-01-19T21:17:02.289Z,-1.72
2019-01-19T21:19:31.649Z,-1.72
2019-01-19T21:22:00.944Z,-1.71
2019-01-19T21:24:30.297Z,-1.70
2019-01-19T21:26:59.727Z,-1.69
2019-01-19T21:29:29.118Z,-1.67
2019-01-19T21:31:58.443Z,-1.67
2019-01-19T21:34:27.811Z,-1.68
2019-01-19T21:36:57.145Z,-1.68
2019-01-19T21:39:26.468Z,-1.71
2019-01-19T21:41:55.781Z,-1.72
2019-01-19T21:44:25.213Z,-1.76
2019-01-19T21:46:54.602Z,-1.83
2019-01-19T21:49:24.045Z,-1.92
2019-01-19T21:51:53.411Z,-2.00
2019-01-19T21:54:22.871Z,-2.07
2019-01-19T21:56:52.187Z,-2.11
2019-01-19T21:59:21.540Z,-2.14
2019-01-19T22:01:50.935Z,-2.18
2019-01-19T22:04:20.273Z,-2.22
2019-01-19T22:06:49.563Z,-2.26
2019-01-19T22:09:18.919Z,-2.29
2019-01-19T22:11:48.247Z,-2.30
2019-01-19T22:14:17.638Z,-2.32
2019-01-19T22:16:46.954Z,-2.35
2019-01-19T22:19:16.288Z,-2.36
2019-01-19T22:21:45.587Z,-2.37
2019-01-19T22:24:15.082Z,-2.39
2019-01-19T22:26:46.031Z,-2.41
2019-01-19T22:29:15.377Z,-2.42
2019-01-19T22:31:44.828Z,-2.43
2019-01-19T22:34:14.134Z,-2.44
2019-01-19T22:36:43.430Z,-2.45
2019-01-19T22:39:12.717Z,-2.47
2019-01-19T22:41:42.545Z,-2.48
2019-01-19T22:44:11.931Z,-2.50
2019-01-19T22:46:41.215Z,-2.50
2019-01-19T22:49:11.221Z,-2.52
2019-01-19T22:51:40.575Z,-2.53
2019-01-19T22:54:09.956Z,-2.55
2019-01-19T22:56:39.319Z,-2.57
2019-01-19T22:59:08.659Z,-2.57
2019-01-19T23:01:58.821Z,-2.59
2019-01-19T23:04:28.121Z,-2.63
2019-01-19T23:06:57.469Z,-2.67
2019-01-19T23:09:26.829Z,-2.69
2019-01-19T23:11:56.185Z,-2.72
2019-01-19T23:14:25.479Z,-2.75
2019-01-19T23:16:54.806Z,-2.79
2019-01-19T23:19:24.204Z,-2.81
2019-01-19T23:21:53.501Z,-2.84
2019-01-19T23:24:22.861Z,-2.87
2019-01-19T23:26:52.271Z,-2.89
2019-01-19T23:29:21.677Z,-2.91
2019-01-19T23:31:51.017Z,-2.93
2019-01-19T23:34:20.353Z,-2.93
2019-01-19T23:36:49.683Z,-2.96
2019-01-19T23:39:19.064Z,-2.97
2019-01-19T23:41:48.388Z,-2.97
2019-01-19T23:44:17.735Z,-2.98
2019-01-19T23:46:47.068Z,-2.99
2019-01-19T23:49:16.329Z,-3.01
2019-01-19T23:51:45.616Z,-3.05
2019-01-19T23:54:14.921Z,-3.07
2019-01-19T23:56:44.325Z,-3.08
2019-01-19T23:59:13.617Z,-3.10
